Neshkoro, Wisconsin
Current Conditions -  °F | °C
As of 4:13 AM on Friday 31 Oct 2014 (Local Time) from KY50 Reporting Station
Light Snow Light Snow  
Wind Chill: 24°   Ceiling: 2300
Heat Index: 34°   Visibility: 10mi
Dew Point: 30°   Wind: 15mph
Humidity: 87%   Direction: 350°N
Pressure: 30.15"   Gusts: 21mph
Location:  43.97°N, 89.22°W
Report Text: KY50 310913Z AUTO 35013G18KT 10SM -SN FEW001 SCT011 BKN023 01/M01 A3015 RMK AO2 TSNO BKN V SCT P0000
Loading
Personal Weather Stations






























Interactive Weather Map
Tropical Storm Tracking
New forecast layout! Learn more

10-Day Weather Forecast

Advertisements
Track Severe Weather on mobile